createdAt,value
2018-08-20T00:02:00.676Z,101057.80
2018-08-20T00:04:34.888Z,101055.20
2018-08-20T00:07:03.812Z,101057.19
2018-08-20T00:09:38.277Z,101060.18
2018-08-20T00:12:08.439Z,101056.27
2018-08-20T00:14:37.576Z,101056.66
2018-08-20T00:17:06.543Z,101055.69
2018-08-20T00:19:35.512Z,101051.14
2018-08-20T00:22:04.384Z,101049.48
2018-08-20T00:24:33.352Z,101047.52
2018-08-20T00:27:03.352Z,101049.54
2018-08-20T00:29:32.908Z,101043.55
2018-08-20T00:32:01.756Z,101034.52
2018-08-20T00:34:30.703Z,101029.90
2018-08-20T00:36:59.559Z,101030.95
2018-08-20T00:39:28.488Z,101035.05
2018-08-20T00:41:57.501Z,101031.39
2018-08-20T00:44:26.371Z,101035.98
2018-08-20T00:46:55.287Z,101033.09
2018-08-20T00:49:24.143Z,101035.05
2018-08-20T00:51:53.153Z,101029.41
2018-08-20T00:54:22.151Z,101028.12
2018-08-20T00:56:51.072Z,101026.17
2018-08-20T00:59:19.929Z,101032.28
2018-08-20T01:01:48.907Z,101031.22
2018-08-20T01:04:17.803Z,101027.48
2018-08-20T01:06:46.660Z,101018.20
2018-08-20T01:09:15.657Z,101021.34
2018-08-20T01:11:44.647Z,101023.89
2018-08-20T01:14:13.545Z,101026.84
2018-08-20T01:16:42.453Z,101022.69
2018-08-20T01:19:11.409Z,101016.92
2018-08-20T01:21:40.428Z,101021.80
2018-08-20T01:24:09.302Z,101023.40
2018-08-20T01:26:38.232Z,101023.64
2018-08-20T01:29:07.363Z,101025.22
2018-08-20T01:31:36.317Z,101021.86
2018-08-20T01:34:05.247Z,101014.69
2018-08-20T01:36:34.062Z,101014.03
2018-08-20T01:39:02.995Z,101016.05
2018-08-20T01:41:32.026Z,101011.87
2018-08-20T01:44:00.976Z,101016.41
2018-08-20T01:46:29.893Z,101010.17
2018-08-20T01:48:58.801Z,101009.86
2018-08-20T01:51:27.674Z,101016.66
2018-08-20T01:53:56.620Z,101017.27
2018-08-20T01:56:25.540Z,101021.22
2018-08-20T01:58:54.367Z,101012.62
2018-08-20T02:01:23.364Z,101019.87
2018-08-20T02:03:52.228Z,101016.90
2018-08-20T02:06:22.033Z,101024.95
2018-08-20T02:08:50.968Z,101027.36
2018-08-20T02:11:19.904Z,101026.69
2018-08-20T02:13:48.861Z,101030.52
2018-08-20T02:16:17.717Z,101021.70
2018-08-20T02:18:46.641Z,101030.20
2018-08-20T02:21:15.492Z,101026.73
2018-08-20T02:23:44.420Z,101023.17
2018-08-20T02:26:13.621Z,101027.98
2018-08-20T02:28:42.476Z,101027.39
2018-08-20T02:31:11.345Z,101022.91
2018-08-20T02:33:40.211Z,101019.83
2018-08-20T02:36:09.112Z,101021.26
2018-08-20T02:38:37.967Z,101022.09
2018-08-20T02:41:06.996Z,101021.44
2018-08-20T02:43:36.859Z,101022.50
2018-08-20T02:46:05.675Z,101024.47
2018-08-20T02:48:34.584Z,101024.59
2018-08-20T02:51:03.444Z,101030.28
2018-08-20T02:53:32.314Z,101030.36
2018-08-20T02:56:01.212Z,101032.48
2018-08-20T02:58:30.048Z,101032.17
2018-08-20T03:00:58.931Z,101032.91
2018-08-20T03:03:27.855Z,101037.98
2018-08-20T03:05:56.716Z,101031.97
2018-08-20T03:08:25.674Z,101033.34
2018-08-20T03:10:54.524Z,101035.03
2018-08-20T03:13:23.458Z,101036.61
2018-08-20T03:15:52.493Z,101031.16
2018-08-20T03:18:21.369Z,101031.36
2018-08-20T03:20:50.224Z,101030.66
2018-08-20T03:23:19.148Z,101034.73
2018-08-20T03:25:48.043Z,101032.78
2018-08-20T03:28:17.125Z,101024.41
2018-08-20T03:30:45.985Z,101029.47
2018-08-20T03:33:14.861Z,101027.92
2018-08-20T03:35:43.732Z,101036.43
2018-08-20T03:38:12.664Z,101036.97
2018-08-20T03:40:41.628Z,101032.37
2018-08-20T03:43:10.568Z,101039.88
2018-08-20T03:45:39.489Z,101038.03
2018-08-20T03:48:08.644Z,101039.06
2018-08-20T03:50:37.539Z,101040.38
2018-08-20T03:53:06.526Z,101038.14
2018-08-20T03:55:35.421Z,101041.04
2018-08-20T03:58:04.444Z,101031.62
2018-08-20T04:00:33.287Z,101031.64
2018-08-20T04:03:02.209Z,101034.74
2018-08-20T04:05:31.133Z,101031.53
2018-08-20T04:07:59.987Z,101030.19
2018-08-20T04:10:28.844Z,101033.98
2018-08-20T04:12:57.840Z,101028.48
2018-08-20T04:15:26.687Z,101042.52
2018-08-20T04:17:55.659Z,101029.77
2018-08-20T04:20:24.576Z,101035.30
2018-08-20T04:22:53.556Z,101026.79
2018-08-20T04:25:22.499Z,101022.34
2018-08-20T04:27:51.436Z,101025.70
2018-08-20T04:30:21.320Z,101027.95
2018-08-20T04:32:50.172Z,101023.25
2018-08-20T04:35:19.070Z,101023.25
2018-08-20T04:37:48.040Z,101023.66
2018-08-20T04:40:16.979Z,101027.30
2018-08-20T04:42:45.799Z,101032.27
2018-08-20T04:45:14.715Z,101028.77
2018-08-20T04:47:43.601Z,101028.50
2018-08-20T04:50:12.925Z,101024.33
2018-08-20T04:52:42.068Z,101031.28
2018-08-20T04:55:11.160Z,101028.56
2018-08-20T04:57:40.133Z,101030.47
2018-08-20T05:00:10.667Z,101038.20
2018-08-20T05:02:39.681Z,101040.40
2018-08-20T05:05:08.829Z,101045.28
2018-08-20T05:07:37.627Z,101038.94
2018-08-20T05:10:06.646Z,101044.48
2018-08-20T05:12:35.596Z,101047.08
2018-08-20T05:15:04.605Z,101048.39
2018-08-20T05:17:33.475Z,101048.33
2018-08-20T05:20:02.416Z,101049.74
2018-08-20T05:22:31.303Z,101050.52
2018-08-20T05:25:00.202Z,101051.69
2018-08-20T05:27:29.085Z,101050.98
2018-08-20T05:29:58.584Z,101054.98
2018-08-20T05:32:27.424Z,101061.47
2018-08-20T05:34:56.284Z,101058.05
2018-08-20T05:37:25.156Z,101066.73
2018-08-20T05:39:53.959Z,101064.06
2018-08-20T05:42:23.503Z,101071.31
2018-08-20T05:44:52.478Z,101073.12
2018-08-20T05:47:21.359Z,101065.07
2018-08-20T05:49:50.273Z,101071.69
2018-08-20T05:52:19.071Z,101071.97
2018-08-20T05:54:47.960Z,101070.43
2018-08-20T05:57:16.945Z,101062.83
2018-08-20T05:59:45.900Z,101075.62
2018-08-20T06:02:14.912Z,101072.03
2018-08-20T06:04:43.935Z,101067.35
2018-08-20T06:07:13.732Z,101076.74
2018-08-20T06:09:42.708Z,101071.17
2018-08-20T06:12:11.539Z,101074.50
2018-08-20T06:14:40.577Z,101080.34
2018-08-20T06:17:09.509Z,101080.91
2018-08-20T06:19:38.480Z,101085.00
2018-08-20T06:22:07.442Z,101076.86
2018-08-20T06:24:36.324Z,101078.89
2018-08-20T06:27:05.301Z,101080.02
2018-08-20T06:29:34.276Z,101080.61
2018-08-20T06:32:03.177Z,101079.76
2018-08-20T06:34:32.087Z,101079.20
2018-08-20T06:37:00.904Z,101087.80
2018-08-20T06:39:29.776Z,101081.79
2018-08-20T06:41:58.845Z,101074.62
2018-08-20T06:44:27.715Z,101083.86
2018-08-20T06:46:56.560Z,101076.63
2018-08-20T06:49:25.431Z,101079.41
2018-08-20T06:51:54.279Z,101074.88
2018-08-20T06:54:23.161Z,101077.63
2018-08-20T06:56:52.168Z,101087.05
2018-08-20T06:59:21.065Z,101078.82
2018-08-20T07:01:49.981Z,101084.70
2018-08-20T07:04:18.916Z,101083.63
2018-08-20T07:06:47.850Z,101075.80
2018-08-20T07:09:16.929Z,101076.33
2018-08-20T07:11:46.803Z,101075.95
2018-08-20T07:14:16.601Z,101083.41
2018-08-20T07:16:45.536Z,101077.55
2018-08-20T07:19:14.440Z,101074.03
2018-08-20T07:21:43.356Z,101077.69
2018-08-20T07:24:12.312Z,101084.56
2018-08-20T07:26:41.230Z,101090.56
2018-08-20T07:29:10.118Z,101088.56
2018-08-20T07:31:39.036Z,101090.86
2018-08-20T07:34:08.075Z,101091.80
2018-08-20T07:36:36.861Z,101091.63
2018-08-20T07:39:06.180Z,101085.19
2018-08-20T07:41:35.176Z,101086.51
2018-08-20T07:44:04.100Z,101087.13
2018-08-20T07:46:32.973Z,101079.89
2018-08-20T07:49:06.058Z,101084.57
2018-08-20T07:51:34.980Z,101090.35
2018-08-20T07:54:04.116Z,101090.67
2018-08-20T07:56:32.956Z,101084.31
2018-08-20T07:59:01.834Z,101081.16
2018-08-20T08:01:30.740Z,101078.72
2018-08-20T08:03:59.780Z,101079.83
2018-08-20T08:06:28.679Z,101069.50
2018-08-20T08:08:57.708Z,101081.16
2018-08-20T08:11:26.616Z,101073.64
2018-08-20T08:13:55.501Z,101079.80
2018-08-20T08:16:24.588Z,101078.55
2018-08-20T08:18:53.599Z,101085.94
2018-08-20T08:21:22.541Z,101078.73
2018-08-20T08:23:51.585Z,101070.34
2018-08-20T08:26:20.478Z,101060.22
2018-08-20T08:28:49.371Z,101074.48
2018-08-20T08:31:18.889Z,101080.02
2018-08-20T08:33:47.760Z,101072.05
2018-08-20T08:36:16.712Z,101081.57
2018-08-20T08:38:45.736Z,101071.24
2018-08-20T08:41:14.652Z,101070.91
2018-08-20T08:43:44.188Z,101073.41
2018-08-20T08:46:13.160Z,101076.33
2018-08-20T08:48:42.084Z,101071.20
2018-08-20T08:51:11.096Z,101071.19
2018-08-20T08:53:39.963Z,101069.88
2018-08-20T08:56:08.872Z,101073.75
2018-08-20T08:58:37.836Z,101069.32
2018-08-20T09:01:06.719Z,101076.52
2018-08-20T09:03:35.620Z,101078.61
2018-08-20T09:06:04.700Z,101074.12
2018-08-20T09:08:33.616Z,101075.46
2018-08-20T09:11:02.543Z,101064.89
2018-08-20T09:13:31.520Z,101066.89
2018-08-20T09:16:00.416Z,101076.09
2018-08-20T09:18:29.532Z,101076.18
2018-08-20T09:20:59.188Z,101072.31
2018-08-20T09:23:28.088Z,101070.39
2018-08-20T09:25:56.983Z,101067.99
2018-08-20T09:28:26.008Z,101074.98
2018-08-20T09:30:54.895Z,101066.73
2018-08-20T09:33:23.724Z,101068.02
2018-08-20T09:35:52.651Z,101070.61
2018-08-20T09:38:21.776Z,101071.80
2018-08-20T09:40:50.680Z,101062.94
2018-08-20T09:43:19.583Z,101066.11
2018-08-20T09:45:48.533Z,101070.98
2018-08-20T09:48:18.268Z,101059.14
2018-08-20T09:50:47.308Z,101061.12
2018-08-20T09:53:16.321Z,101060.21
2018-08-20T09:55:45.148Z,101056.41
2018-08-20T09:58:14.088Z,101063.56
2018-08-20T10:00:42.924Z,101063.48
2018-08-20T10:03:11.984Z,101060.77
2018-08-20T10:05:41.127Z,101057.41
2018-08-20T10:08:10.357Z,101058.28
2018-08-20T10:10:39.235Z,101055.46
2018-08-20T10:13:08.169Z,101061.72
2018-08-20T10:15:37.088Z,101080.95
2018-08-20T10:18:06.443Z,101071.90
2018-08-20T10:20:35.356Z,101066.84
2018-08-20T10:23:04.305Z,101058.66
2018-08-20T10:25:33.195Z,101064.26
2018-08-20T10:28:02.069Z,101057.41
2018-08-20T10:30:31.016Z,101055.37
2018-08-20T10:33:00.058Z,101060.72
2018-08-20T10:35:29.012Z,101048.87
2018-08-20T10:37:57.937Z,101058.91
2018-08-20T10:40:28.016Z,101059.81
2018-08-20T10:42:56.960Z,101053.50
2018-08-20T10:45:30.944Z,101052.41
2018-08-20T10:47:59.891Z,101066.52
2018-08-20T10:50:28.747Z,101058.86
2018-08-20T10:52:57.639Z,101050.56
2018-08-20T10:55:26.482Z,101063.81
2018-08-20T10:57:55.349Z,101060.80
2018-08-20T11:00:24.304Z,101059.91
2018-08-20T11:02:53.208Z,101055.94
2018-08-20T11:05:22.236Z,101053.53
2018-08-20T11:07:51.152Z,101064.30
2018-08-20T11:10:20.016Z,101054.30
2018-08-20T11:12:48.920Z,101056.48
2018-08-20T11:15:17.773Z,101065.33
2018-08-20T11:17:46.782Z,101049.30
2018-08-20T11:20:16.788Z,101054.78
2018-08-20T11:22:45.965Z,101049.79
2018-08-20T11:25:14.920Z,101047.30
2018-08-20T11:27:43.911Z,101056.84
2018-08-20T11:30:13.981Z,101061.19
2018-08-20T11:32:42.870Z,101055.64
2018-08-20T11:35:12.244Z,101071.23
2018-08-20T11:37:41.194Z,101054.63
2018-08-20T11:40:10.441Z,101057.09
2018-08-20T11:42:39.510Z,101063.89
2018-08-20T11:45:10.728Z,101061.36
2018-08-20T11:47:39.610Z,101062.16
2018-08-20T11:50:08.635Z,101059.79
2018-08-20T11:52:38.201Z,101049.16
2018-08-20T11:55:07.134Z,101057.69
2018-08-20T11:57:36.213Z,101056.77
2018-08-20T12:00:06.200Z,101056.39
2018-08-20T12:02:35.181Z,101054.52
2018-08-20T12:05:04.277Z,101045.57
2018-08-20T12:07:33.258Z,101051.28
2018-08-20T12:10:02.188Z,101046.20
2018-08-20T12:12:31.156Z,101043.30
2018-08-20T12:15:00.024Z,101048.91
2018-08-20T12:17:28.926Z,101050.34
2018-08-20T12:19:57.856Z,101049.63
2018-08-20T12:22:26.840Z,101044.03
2018-08-20T12:24:55.639Z,101046.63
2018-08-20T12:27:24.637Z,101048.65
2018-08-20T12:29:53.604Z,101050.78
2018-08-20T12:32:22.663Z,101047.09
2018-08-20T12:34:51.579Z,101048.24
2018-08-20T12:37:20.649Z,101037.45
2018-08-20T12:39:49.652Z,101037.63
2018-08-20T12:42:18.726Z,101038.60
2018-08-20T12:44:47.772Z,101030.13
2018-08-20T12:47:16.812Z,101038.05
2018-08-20T12:49:46.010Z,101039.34
2018-08-20T12:52:14.831Z,101040.92
2018-08-20T12:54:43.767Z,101030.53
2018-08-20T12:57:12.705Z,101027.38
2018-08-20T12:59:41.576Z,101022.73
2018-08-20T13:02:10.432Z,101020.46
2018-08-20T13:04:39.336Z,101017.84
2018-08-20T13:07:08.406Z,101020.78
2018-08-20T13:09:37.400Z,101022.81
2018-08-20T13:12:06.566Z,101014.86
2018-08-20T13:14:35.542Z,101016.22
2018-08-20T13:17:04.750Z,101013.25
2018-08-20T13:19:33.631Z,101009.83
2018-08-20T13:22:02.546Z,101007.01
2018-08-20T13:24:31.502Z,101003.19
2018-08-20T13:27:00.507Z,101002.39
2018-08-20T13:29:29.700Z,101001.05
2018-08-20T13:31:58.543Z,101010.69
2018-08-20T13:34:27.724Z,100999.44
2018-08-20T13:36:56.800Z,101005.88
2018-08-20T13:39:25.788Z,101007.28
2018-08-20T13:41:54.880Z,100999.77
2018-08-20T13:44:24.050Z,101003.45
2018-08-20T13:46:52.942Z,100991.67
2018-08-20T13:49:21.792Z,100998.04
2018-08-20T13:51:51.824Z,100992.50
2018-08-20T13:54:20.752Z,100993.31
2018-08-20T13:56:49.661Z,100997.09
2018-08-20T13:59:18.591Z,100985.36
2018-08-20T14:01:48.329Z,100981.12
2018-08-20T14:04:17.277Z,100984.06
2018-08-20T14:06:46.164Z,100983.09
2018-08-20T14:09:15.092Z,100972.70
2018-08-20T14:11:44.060Z,100980.28
2018-08-20T14:14:12.905Z,100976.39
2018-08-20T14:16:41.856Z,100976.00
2018-08-20T14:19:10.900Z,100980.33
2018-08-20T14:21:40.372Z,100980.93
2018-08-20T14:24:09.340Z,100968.90
2018-08-20T14:26:38.173Z,100984.32
2018-08-20T14:29:07.097Z,100985.29
2018-08-20T14:31:36.059Z,100985.63
2018-08-20T14:34:05.076Z,100978.45
2018-08-20T14:36:33.989Z,100984.50
2018-08-20T14:39:02.923Z,100979.37
2018-08-20T14:41:31.888Z,100962.92
2018-08-20T14:44:00.735Z,100986.67
2018-08-20T14:46:29.640Z,100975.75
2018-08-20T14:48:58.504Z,100981.70
2018-08-20T14:51:27.461Z,100989.58
2018-08-20T14:53:56.379Z,100988.66
2018-08-20T14:56:25.288Z,100993.09
2018-08-20T14:58:54.300Z,100991.22
2018-08-20T15:01:23.262Z,100993.84
2018-08-20T15:03:58.482Z,100991.98
2018-08-20T15:06:27.440Z,100992.78
2018-08-20T15:08:56.402Z,100990.77
2018-08-20T15:11:25.368Z,100988.67
2018-08-20T15:13:54.296Z,100990.12
2018-08-20T15:16:23.236Z,100986.56
2018-08-20T15:18:52.198Z,100985.18
2018-08-20T15:21:21.015Z,100979.91
2018-08-20T15:23:50.037Z,100986.47
2018-08-20T15:26:18.961Z,100981.77
2018-08-20T15:28:47.896Z,100989.36
2018-08-20T15:31:17.480Z,100995.63
2018-08-20T15:33:46.332Z,100988.59
2018-08-20T15:36:15.436Z,100996.30
2018-08-20T15:38:44.344Z,100992.67
2018-08-20T15:41:13.483Z,100985.69
2018-08-20T15:43:42.356Z,100985.66
2018-08-20T15:46:11.284Z,100990.17
2018-08-20T15:48:40.149Z,100992.92
2018-08-20T15:51:09.100Z,100993.58
2018-08-20T15:53:37.980Z,100987.55
2018-08-20T15:56:06.905Z,100985.55
2018-08-20T15:58:36.312Z,100985.84
2018-08-20T16:01:05.189Z,100988.19
2018-08-20T16:03:34.152Z,100984.84
2018-08-20T16:06:03.080Z,100983.67
2018-08-20T16:08:32.276Z,100980.97
2018-08-20T16:11:01.170Z,100987.56
2018-08-20T16:13:30.084Z,100983.77
2018-08-20T16:15:59.087Z,100990.89
2018-08-20T16:18:28.005Z,100986.36
2018-08-20T16:20:56.924Z,100995.30
2018-08-20T16:23:25.870Z,100988.84
2018-08-20T16:25:54.700Z,100995.30
2018-08-20T16:28:23.711Z,100981.19
2018-08-20T16:30:52.534Z,100994.59
2018-08-20T16:33:21.594Z,101003.64
2018-08-20T16:35:50.688Z,101002.15
2018-08-20T16:38:19.483Z,101003.02
2018-08-20T16:40:48.396Z,100999.08
2018-08-20T16:43:17.364Z,100996.97
2018-08-20T16:45:46.242Z,100993.33
2018-08-20T16:48:15.124Z,100999.54
2018-08-20T16:50:44.951Z,100997.67
2018-08-20T16:53:14.151Z,100999.63
2018-08-20T16:55:43.185Z,101000.73
2018-08-20T16:58:12.070Z,101007.67
2018-08-20T17:00:41.068Z,101010.11
2018-08-20T17:03:11.495Z,101003.95
2018-08-20T17:05:50.576Z,101003.41
2018-08-20T17:08:23.684Z,101003.46
2018-08-20T17:10:52.932Z,101010.83
2018-08-20T17:13:21.865Z,101010.34
2018-08-20T17:15:50.836Z,101012.39
2018-08-20T17:18:19.790Z,101009.41
2018-08-20T17:20:48.942Z,100998.47
2018-08-20T17:23:21.052Z,101005.58
2018-08-20T17:25:50.121Z,101011.28
2018-08-20T17:28:23.596Z,101009.28
2018-08-20T17:30:57.206Z,101010.67
2018-08-20T17:33:26.328Z,101012.45
2018-08-20T17:35:55.293Z,101005.89
2018-08-20T17:38:24.092Z,101014.11
2018-08-20T17:40:52.967Z,101014.11
2018-08-20T17:43:21.852Z,101017.73
2018-08-20T17:45:50.986Z,101021.25
2018-08-20T17:48:25.043Z,101020.91
2018-08-20T17:50:53.945Z,101029.44
2018-08-20T17:53:22.833Z,101025.95
2018-08-20T17:55:51.744Z,101030.37
2018-08-20T17:58:20.688Z,101033.01
2018-08-20T18:00:53.448Z,101034.72
2018-08-20T18:03:26.408Z,101030.72
2018-08-20T18:06:06.355Z,101034.43
2018-08-20T18:08:35.616Z,101030.26
2018-08-20T18:11:05.085Z,101037.55
2018-08-20T18:13:44.997Z,101029.23
2018-08-20T18:16:17.985Z,101030.01
2018-08-20T18:18:49.944Z,101032.27
2018-08-20T18:21:19.083Z,101038.53
2018-08-20T18:23:48.020Z,101033.80
2018-08-20T18:26:17.216Z,101041.09
2018-08-20T18:28:51.944Z,101033.24
2018-08-20T18:31:23.433Z,101034.95
2018-08-20T18:33:52.380Z,101032.33
2018-08-20T18:36:23.247Z,101031.77
2018-08-20T18:39:00.836Z,101036.85
2018-08-20T18:42:20.612Z,101033.73
2018-08-20T18:44:50.091Z,101038.84
2018-08-20T18:47:19.658Z,101045.31
2018-08-20T18:49:53.608Z,101042.34
2018-08-20T18:52:23.485Z,101046.98
2018-08-20T18:54:53.459Z,101053.69
2018-08-20T18:57:24.664Z,101056.36
2018-08-20T18:59:54.452Z,101048.06
2018-08-20T19:02:36.712Z,101049.74
2018-08-20T19:05:07.396Z,101056.58
2018-08-20T19:07:36.325Z,101057.42
2018-08-20T19:10:06.877Z,101066.08
2018-08-20T19:12:35.805Z,101057.52
2018-08-20T19:17:28.201Z,101060.24
2018-08-20T19:20:01.540Z,101061.85
2018-08-20T19:22:31.028Z,101065.38
2018-08-20T19:24:59.984Z,101063.87
2018-08-20T19:27:30.220Z,101063.55
2018-08-20T19:30:03.067Z,101056.09
2018-08-20T19:32:31.951Z,101056.16
2018-08-20T19:35:00.844Z,101053.78
2018-08-20T19:37:29.647Z,101053.95
2018-08-20T19:39:58.489Z,101048.41
2018-08-20T19:42:33.369Z,101046.53
2018-08-20T19:45:03.277Z,101054.94
2018-08-20T19:47:32.132Z,101051.30
2018-08-20T19:50:01.240Z,101049.41
2018-08-20T19:52:30.253Z,101045.89
2018-08-20T19:55:07.033Z,101046.92
2018-08-20T19:57:36.241Z,101043.47
2018-08-20T20:00:07.627Z,101042.27
2018-08-20T20:02:36.696Z,101052.41
2018-08-20T20:05:06.800Z,101050.72
2018-08-20T20:07:37.084Z,101051.97
2018-08-20T20:10:13.900Z,101053.70
2018-08-20T20:12:47.911Z,101051.92
2018-08-20T20:15:16.892Z,101053.14
2018-08-20T20:17:45.776Z,101046.67
2018-08-20T20:20:14.639Z,101050.58
2018-08-20T20:22:43.748Z,101051.36
2018-08-20T20:25:12.676Z,101050.90
2018-08-20T20:27:41.643Z,101046.17
2018-08-20T20:30:10.568Z,101046.03
2018-08-20T20:32:39.540Z,101048.73
2018-08-20T20:35:09.849Z,101049.48
2018-08-20T20:37:38.816Z,101040.93
2018-08-20T20:40:08.125Z,101037.40
2018-08-20T20:42:37.032Z,101037.89
2018-08-20T20:45:05.947Z,101042.80
2018-08-20T20:47:34.966Z,101040.77
2018-08-20T20:50:03.884Z,101042.77
2018-08-20T20:52:32.789Z,101051.99
2018-08-20T20:55:01.773Z,101050.65
2018-08-20T20:57:30.753Z,101061.56
2018-08-20T20:59:59.796Z,101055.28
2018-08-20T21:02:28.605Z,101053.13
2018-08-20T21:05:01.620Z,101051.38
2018-08-20T21:07:33.633Z,101054.96
2018-08-20T21:10:02.619Z,101054.80
2018-08-20T21:12:32.297Z,101050.98
2018-08-20T21:15:01.476Z,101059.95
2018-08-20T21:17:34.068Z,101054.72
2018-08-20T21:20:03.284Z,101053.23
2018-08-20T21:22:33.436Z,101052.91
2018-08-20T21:25:02.275Z,101052.34
2018-08-20T21:27:31.200Z,101048.55
2018-08-20T21:30:01.234Z,101047.27
2018-08-20T21:32:30.312Z,101044.08
2018-08-20T21:34:59.228Z,101044.53
2018-08-20T21:37:28.151Z,101043.97
2018-08-20T21:39:57.106Z,101043.78
2018-08-20T21:42:32.180Z,101039.05
2018-08-20T21:45:01.081Z,101044.48
2018-08-20T21:47:31.266Z,101038.58
2018-08-20T21:50:00.315Z,101033.94
2018-08-20T21:52:29.288Z,101035.01
2018-08-20T21:54:58.145Z,101034.19
2018-08-20T21:57:27.223Z,101033.87
2018-08-20T22:00:03.408Z,101037.63
2018-08-20T22:02:33.216Z,101031.02
2018-08-20T22:05:02.264Z,101037.17
2018-08-20T22:07:31.211Z,101034.32
2018-08-20T22:10:00.268Z,101033.52
2018-08-20T22:12:29.203Z,101031.91
2018-08-20T22:14:58.116Z,101030.52
2018-08-20T22:17:30.880Z,101031.55
2018-08-20T22:20:00.131Z,101032.09
2018-08-20T22:22:29.151Z,101027.66
2018-08-20T22:25:01.011Z,101029.45
2018-08-20T22:27:31.300Z,101016.84
2018-08-20T22:30:03.188Z,101021.45
2018-08-20T22:32:33.588Z,101019.47
2018-08-20T22:35:02.544Z,101012.75
2018-08-20T22:37:31.581Z,101011.36
2018-08-20T22:40:07.588Z,101012.66
2018-08-20T22:42:46.790Z,101015.20
2018-08-20T22:45:16.763Z,101015.33
2018-08-20T22:47:46.476Z,101020.59
2018-08-20T22:50:15.417Z,101018.64
2018-08-20T22:52:45.505Z,101021.88
2018-08-20T22:55:16.004Z,101020.46
2018-08-20T22:57:51.900Z,101022.35
2018-08-20T23:00:23.520Z,101018.94
2018-08-20T23:02:53.650Z,101021.78
2018-08-20T23:05:22.751Z,101020.92
2018-08-20T23:07:51.902Z,101019.05
2018-08-20T23:10:20.892Z,101022.30
2018-08-20T23:12:51.219Z,101032.69
2018-08-20T23:15:20.180Z,101033.73
2018-08-20T23:17:49.105Z,101024.20
2018-08-20T23:20:23.285Z,101021.97
2018-08-20T23:22:52.131Z,101023.59
2018-08-20T23:25:20.968Z,101023.02
2018-08-20T23:27:51.126Z,101021.88
2018-08-20T23:30:20.403Z,101022.63
2018-08-20T23:32:49.524Z,101024.25
2018-08-20T23:35:18.376Z,101025.34
2018-08-20T23:37:47.252Z,101026.97
2018-08-20T23:40:16.092Z,101022.84
2018-08-20T23:42:45.068Z,101022.34
2018-08-20T23:45:14.113Z,101027.86
2018-08-20T23:47:42.935Z,101025.05
2018-08-20T23:50:11.844Z,101018.94
2018-08-20T23:52:40.683Z,101022.25
2018-08-20T23:55:09.656Z,101021.06
2018-08-20T23:57:38.605Z,101025.34
